sensor_id;sensor_type;location;lat;lon;timestamp;pressure;altitude;pressure_sealevel;temperature;humidity
51053;BME280;37093;37.716;-122.060;2023-09-18T00:01:35;99797.91;;;22.73;43.84
51053;BME280;37093;37.716;-122.060;2023-09-18T00:04:03;99799.61;;;21.93;44.15
51053;BME280;37093;37.716;-122.060;2023-09-18T00:06:32;99796.09;;;22.51;43.48
51053;BME280;37093;37.716;-122.060;2023-09-18T00:09:00;99809.13;;;22.38;43.60
51053;BME280;37093;37.716;-122.060;2023-09-18T00:11:29;99808.48;;;21.97;43.70
51053;BME280;37093;37.716;-122.060;2023-09-18T00:13:57;99803.22;;;22.45;43.99
51053;BME280;37093;37.716;-122.060;2023-09-18T00:16:26;99802.87;;;22.15;43.94
51053;BME280;37093;37.716;-122.060;2023-09-18T00:18:54;99801.11;;;22.74;42.76
51053;BME280;37093;37.716;-122.060;2023-09-18T00:21:23;99797.68;;;22.92;42.54
51053;BME280;37093;37.716;-122.060;2023-09-18T00:23:51;99807.23;;;22.11;44.05
51053;BME280;37093;37.716;-122.060;2023-09-18T00:26:20;99812.38;;;21.40;45.60
51053;BME280;37093;37.716;-122.060;2023-09-18T00:28:48;99813.71;;;22.02;44.77
51053;BME280;37093;37.716;-122.060;2023-09-18T00:31:18;99811.05;;;21.63;46.20
51053;BME280;37093;37.716;-122.060;2023-09-18T00:33:46;99811.28;;;21.42;47.10
51053;BME280;37093;37.716;-122.060;2023-09-18T00:36:15;99815.30;;;22.01;45.74
51053;BME280;37093;37.716;-122.060;2023-09-18T00:38:44;99811.26;;;20.78;47.82
51053;BME280;37093;37.716;-122.060;2023-09-18T00:41:13;99814.70;;;21.91;45.71
51053;BME280;37093;37.716;-122.060;2023-09-18T00:43:41;99819.88;;;21.61;46.60
51053;BME280;37093;37.716;-122.060;2023-09-18T00:46:09;99819.19;;;21.07;47.01
51053;BME280;37093;37.716;-122.060;2023-09-18T00:48:38;99819.57;;;21.30;47.30
51053;BME280;37093;37.716;-122.060;2023-09-18T00:51:07;99818.25;;;21.78;46.65
51053;BME280;37093;37.716;-122.060;2023-09-18T00:53:38;99818.54;;;21.36;47.45
51053;BME280;37093;37.716;-122.060;2023-09-18T00:56:06;99821.39;;;21.10;47.12
51053;BME280;37093;37.716;-122.060;2023-09-18T00:58:35;99823.26;;;22.03;45.57
51053;BME280;37093;37.716;-122.060;2023-09-18T01:01:04;99827.97;;;22.22;45.08
51053;BME280;37093;37.716;-122.060;2023-09-18T01:03:33;99821.17;;;22.56;44.71
51053;BME280;37093;37.716;-122.060;2023-09-18T01:06:01;99826.68;;;22.04;46.36
51053;BME280;37093;37.716;-122.060;2023-09-18T01:08:30;99829.34;;;20.98;48.98
51053;BME280;37093;37.716;-122.060;2023-09-18T01:11:04;99835.45;;;21.02;47.77
51053;BME280;37093;37.716;-122.060;2023-09-18T01:13:47;99833.61;;;21.18;48.47
51053;BME280;37093;37.716;-122.060;2023-09-18T01:16:27;99838.48;;;20.59;50.15
51053;BME280;37093;37.716;-122.060;2023-09-18T01:18:59;99835.78;;;21.53;46.93
51053;BME280;37093;37.716;-122.060;2023-09-18T01:21:28;99835.58;;;20.38;49.37
51053;BME280;37093;37.716;-122.060;2023-09-18T01:23:56;99839.07;;;21.28;48.55
51053;BME280;37093;37.716;-122.060;2023-09-18T01:26:24;99839.35;;;20.74;48.87
51053;BME280;37093;37.716;-122.060;2023-09-18T01:28:53;99841.53;;;21.29;46.91
51053;BME280;37093;37.716;-122.060;2023-09-18T01:31:21;99838.14;;;21.11;47.91
51053;BME280;37093;37.716;-122.060;2023-09-18T01:33:51;99839.53;;;20.96;48.95
51053;BME280;37093;37.716;-122.060;2023-09-18T01:36:20;99840.76;;;20.80;49.29
51053;BME280;37093;37.716;-122.060;2023-09-18T01:38:49;99841.36;;;21.66;47.90
51053;BME280;37093;37.716;-122.060;2023-09-18T01:41:18;99838.27;;;20.78;49.77
51053;BME280;37093;37.716;-122.060;2023-09-18T01:43:47;99840.40;;;20.13;51.31
51053;BME280;37093;37.716;-122.060;2023-09-18T01:46:16;99845.22;;;20.86;49.46
51053;BME280;37093;37.716;-122.060;2023-09-18T01:48:46;99845.26;;;20.85;49.00
51053;BME280;37093;37.716;-122.060;2023-09-18T01:51:15;99843.55;;;21.33;48.37
51053;BME280;37093;37.716;-122.060;2023-09-18T01:53:43;99839.95;;;21.23;48.47
51053;BME280;37093;37.716;-122.060;2023-09-18T01:56:11;99843.38;;;21.50;48.33
51053;BME280;37093;37.716;-122.060;2023-09-18T01:58:39;99852.16;;;20.73;49.97
51053;BME280;37093;37.716;-122.060;2023-09-18T02:01:08;99856.13;;;21.08;49.33
51053;BME280;37093;37.716;-122.060;2023-09-18T02:03:36;99860.51;;;21.31;49.20
51053;BME280;37093;37.716;-122.060;2023-09-18T02:06:05;99860.77;;;21.35;48.86
51053;BME280;37093;37.716;-122.060;2023-09-18T02:08:33;99863.81;;;20.49;50.70
51053;BME280;37093;37.716;-122.060;2023-09-18T02:11:02;99867.67;;;20.48;50.73
51053;BME280;37093;37.716;-122.060;2023-09-18T02:13:31;99871.22;;;20.16;51.01
51053;BME280;37093;37.716;-122.060;2023-09-18T02:15:59;99867.35;;;20.38;50.87
51053;BME280;37093;37.716;-122.060;2023-09-18T02:18:28;99867.60;;;20.63;51.27
51053;BME280;37093;37.716;-122.060;2023-09-18T02:20:56;99869.14;;;20.30;51.30
51053;BME280;37093;37.716;-122.060;2023-09-18T02:23:25;99870.44;;;20.52;50.47
51053;BME280;37093;37.716;-122.060;2023-09-18T02:25:56;99873.47;;;20.44;51.13
51053;BME280;37093;37.716;-122.060;2023-09-18T02:28:25;99875.91;;;20.17;52.26
51053;BME280;37093;37.716;-122.060;2023-09-18T02:30:54;99880.96;;;20.21;52.81
51053;BME280;37093;37.716;-122.060;2023-09-18T02:33:22;99880.47;;;20.10;53.13
51053;BME280;37093;37.716;-122.060;2023-09-18T02:35:51;99881.92;;;20.65;50.78
51053;BME280;37093;37.716;-122.060;2023-09-18T02:38:20;99879.96;;;20.58;51.01
51053;BME280;37093;37.716;-122.060;2023-09-18T02:40:48;99881.15;;;21.07;50.35
51053;BME280;37093;37.716;-122.060;2023-09-18T02:43:16;99879.08;;;20.87;50.31
51053;BME280;37093;37.716;-122.060;2023-09-18T02:45:45;99878.80;;;21.36;49.19
51053;BME280;37093;37.716;-122.060;2023-09-18T02:48:13;99880.46;;;21.07;49.88
51053;BME280;37093;37.716;-122.060;2023-09-18T02:50:42;99879.87;;;21.31;50.13
51053;BME280;37093;37.716;-122.060;2023-09-18T02:53:18;99881.46;;;20.96;49.93
51053;BME280;37093;37.716;-122.060;2023-09-18T02:55:48;99887.01;;;21.07;50.02
51053;BME280;37093;37.716;-122.060;2023-09-18T02:58:17;99889.34;;;20.73;50.67
51053;BME280;37093;37.716;-122.060;2023-09-18T03:00:49;99891.06;;;20.85;50.71
51053;BME280;37093;37.716;-122.060;2023-09-18T03:03:18;99889.39;;;20.99;49.95
51053;BME280;37093;37.716;-122.060;2023-09-18T03:05:46;99888.55;;;21.23;50.78
51053;BME280;37093;37.716;-122.060;2023-09-18T03:08:15;99887.23;;;21.05;50.20
51053;BME280;37093;37.716;-122.060;2023-09-18T03:10:44;99887.47;;;21.44;48.98
51053;BME280;37093;37.716;-122.060;2023-09-18T03:13:14;99890.33;;;21.69;47.94
51053;BME280;37093;37.716;-122.060;2023-09-18T03:15:46;99890.69;;;21.78;48.38
51053;BME280;37093;37.716;-122.060;2023-09-18T03:18:14;99890.80;;;21.42;49.26
51053;BME280;37093;37.716;-122.060;2023-09-18T03:20:43;99889.05;;;21.51;48.83
51053;BME280;37093;37.716;-122.060;2023-09-18T03:23:11;99893.47;;;21.83;48.38
51053;BME280;37093;37.716;-122.060;2023-09-18T03:25:41;99895.13;;;21.52;47.78
51053;BME280;37093;37.716;-122.060;2023-09-18T03:28:09;99898.46;;;21.14;48.90
51053;BME280;37093;37.716;-122.060;2023-09-18T03:30:38;99899.31;;;19.69;52.89
51053;BME280;37093;37.716;-122.060;2023-09-18T03:33:06;99899.85;;;20.83;50.25
51053;BME280;37093;37.716;-122.060;2023-09-18T03:35:45;99903.07;;;20.98;48.95
51053;BME280;37093;37.716;-122.060;2023-09-18T03:38:14;99906.39;;;20.02;51.83
51053;BME280;37093;37.716;-122.060;2023-09-18T03:40:42;99908.15;;;21.05;49.13
51053;BME280;37093;37.716;-122.060;2023-09-18T03:43:11;99912.91;;;21.22;49.34
51053;BME280;37093;37.716;-122.060;2023-09-18T03:45:40;99914.30;;;21.25;49.16
51053;BME280;37093;37.716;-122.060;2023-09-18T03:48:09;99915.16;;;20.70;50.71
51053;BME280;37093;37.716;-122.060;2023-09-18T03:50:37;99917.30;;;21.38;50.17
51053;BME280;37093;37.716;-122.060;2023-09-18T03:53:05;99927.32;;;21.13;50.81
51053;BME280;37093;37.716;-122.060;2023-09-18T03:55:34;99927.94;;;20.94;50.61
51053;BME280;37093;37.716;-122.060;2023-09-18T03:58:03;99929.11;;;21.18;49.30
51053;BME280;37093;37.716;-122.060;2023-09-18T04:00:32;99931.65;;;20.58;50.68
51053;BME280;37093;37.716;-122.060;2023-09-18T04:03:00;99936.17;;;20.91;51.18
51053;BME280;37093;37.716;-122.060;2023-09-18T04:05:28;99939.28;;;20.08;52.95
51053;BME280;37093;37.716;-122.060;2023-09-18T04:07:57;99940.30;;;20.70;51.38
51053;BME280;37093;37.716;-122.060;2023-09-18T04:10:26;99941.34;;;21.09;50.51
51053;BME280;37093;37.716;-122.060;2023-09-18T04:12:55;99945.35;;;20.81;52.42
51053;BME280;37093;37.716;-122.060;2023-09-18T04:15:23;99946.93;;;20.50;52.06
51053;BME280;37093;37.716;-122.060;2023-09-18T04:17:51;99945.11;;;20.37;53.58
51053;BME280;37093;37.716;-122.060;2023-09-18T04:20:20;99948.93;;;20.80;51.51
51053;BME280;37093;37.716;-122.060;2023-09-18T04:23:16;99947.37;;;21.29;50.41
51053;BME280;37093;37.716;-122.060;2023-09-18T04:25:45;99945.97;;;21.48;49.58
51053;BME280;37093;37.716;-122.060;2023-09-18T04:28:14;99944.16;;;21.08;50.90
51053;BME280;37093;37.716;-122.060;2023-09-18T04:30:42;99943.06;;;21.26;50.32
51053;BME280;37093;37.716;-122.060;2023-09-18T04:33:11;99942.28;;;21.54;49.43
51053;BME280;37093;37.716;-122.060;2023-09-18T04:35:40;99946.24;;;20.62;51.78
51053;BME280;37093;37.716;-122.060;2023-09-18T04:38:08;99943.00;;;21.09;50.47
51053;BME280;37093;37.716;-122.060;2023-09-18T04:40:37;99941.76;;;20.98;50.80
51053;BME280;37093;37.716;-122.060;2023-09-18T04:43:05;99945.99;;;20.61;52.20
51053;BME280;37093;37.716;-122.060;2023-09-18T04:45:34;99946.69;;;20.34;52.73
51053;BME280;37093;37.716;-122.060;2023-09-18T04:48:03;99951.96;;;20.77;51.22
51053;BME280;37093;37.716;-122.060;2023-09-18T04:50:31;99952.04;;;20.96;51.62
51053;BME280;37093;37.716;-122.060;2023-09-18T04:52:59;99951.99;;;21.06;52.18
51053;BME280;37093;37.716;-122.060;2023-09-18T04:55:28;99947.13;;;20.53;52.75
51053;BME280;37093;37.716;-122.060;2023-09-18T04:57:56;99947.41;;;20.74;52.11
51053;BME280;37093;37.716;-122.060;2023-09-18T05:00:25;99947.37;;;20.96;51.86
51053;BME280;37093;37.716;-122.060;2023-09-18T05:02:53;99945.78;;;20.89;51.77
51053;BME280;37093;37.716;-122.060;2023-09-18T05:05:21;99946.36;;;20.12;53.29
51053;BME280;37093;37.716;-122.060;2023-09-18T05:07:50;99949.96;;;20.87;51.89
51053;BME280;37093;37.716;-122.060;2023-09-18T05:10:18;99946.54;;;20.87;51.43
51053;BME280;37093;37.716;-122.060;2023-09-18T05:12:48;99944.50;;;21.19;50.71
51053;BME280;37093;37.716;-122.060;2023-09-18T05:15:16;99944.80;;;21.49;49.82
51053;BME280;37093;37.716;-122.060;2023-09-18T05:17:47;99946.80;;;21.23;50.82
51053;BME280;37093;37.716;-122.060;2023-09-18T05:20:17;99948.70;;;20.87;51.60
51053;BME280;37093;37.716;-122.060;2023-09-18T05:22:45;99948.09;;;20.91;51.99
51053;BME280;37093;37.716;-122.060;2023-09-18T05:25:14;99950.85;;;20.99;52.16
51053;BME280;37093;37.716;-122.060;2023-09-18T05:27:43;99950.19;;;20.87;52.18
51053;BME280;37093;37.716;-122.060;2023-09-18T05:30:13;99947.56;;;21.22;51.24
51053;BME280;37093;37.716;-122.060;2023-09-18T05:32:42;99949.39;;;20.92;51.90
51053;BME280;37093;37.716;-122.060;2023-09-18T05:35:11;99947.40;;;21.12;51.60
51053;BME280;37093;37.716;-122.060;2023-09-18T05:37:39;99947.91;;;20.60;53.16
51053;BME280;37093;37.716;-122.060;2023-09-18T05:40:10;99944.84;;;20.51;51.72
51053;BME280;37093;37.716;-122.060;2023-09-18T05:42:39;99946.79;;;20.75;52.68
51053;BME280;37093;37.716;-122.060;2023-09-18T05:45:08;99940.14;;;20.30;53.38
51053;BME280;37093;37.716;-122.060;2023-09-18T05:47:37;99942.27;;;20.73;52.83
51053;BME280;37093;37.716;-122.060;2023-09-18T05:50:08;99941.36;;;20.95;51.70
51053;BME280;37093;37.716;-122.060;2023-09-18T05:52:37;99942.24;;;20.96;51.50
51053;BME280;37093;37.716;-122.060;2023-09-18T05:55:06;99946.95;;;21.24;51.95
51053;BME280;37093;37.716;-122.060;2023-09-18T05:57:35;99947.74;;;20.73;52.12
51053;BME280;37093;37.716;-122.060;2023-09-18T06:00:05;99945.59;;;20.37;52.96
51053;BME280;37093;37.716;-122.060;2023-09-18T06:02:34;99948.36;;;20.76;52.70
51053;BME280;37093;37.716;-122.060;2023-09-18T06:05:02;99945.11;;;20.38;53.61
51053;BME280;37093;37.716;-122.060;2023-09-18T06:07:31;99943.77;;;20.38;53.64
51053;BME280;37093;37.716;-122.060;2023-09-18T06:09:59;99940.48;;;20.35;54.65
51053;BME280;37093;37.716;-122.060;2023-09-18T06:12:27;99943.43;;;20.58;53.59
51053;BME280;37093;37.716;-122.060;2023-09-18T06:14:56;99945.75;;;20.74;52.97
51053;BME280;37093;37.716;-122.060;2023-09-18T06:17:25;99945.35;;;21.00;52.70
51053;BME280;37093;37.716;-122.060;2023-09-18T06:19:53;99939.93;;;21.15;51.94
51053;BME280;37093;37.716;-122.060;2023-09-18T06:22:21;99937.02;;;21.31;51.59
51053;BME280;37093;37.716;-122.060;2023-09-18T06:24:50;99937.68;;;21.57;51.51
51053;BME280;37093;37.716;-122.060;2023-09-18T06:27:18;99938.66;;;20.68;54.00
51053;BME280;37093;37.716;-122.060;2023-09-18T06:29:47;99938.10;;;20.75;54.83
51053;BME280;37093;37.716;-122.060;2023-09-18T06:32:15;99940.16;;;20.81;53.83
51053;BME280;37093;37.716;-122.060;2023-09-18T06:34:43;99937.61;;;21.13;52.39
51053;BME280;37093;37.716;-122.060;2023-09-18T06:37:11;99938.75;;;20.19;55.50
51053;BME280;37093;37.716;-122.060;2023-09-18T06:39:39;99938.36;;;20.56;55.60
51053;BME280;37093;37.716;-122.060;2023-09-18T06:42:08;99934.35;;;20.67;54.77
51053;BME280;37093;37.716;-122.060;2023-09-18T06:44:37;99936.73;;;20.88;53.61
51053;BME280;37093;37.716;-122.060;2023-09-18T06:47:05;99934.51;;;21.00;52.80
51053;BME280;37093;37.716;-122.060;2023-09-18T06:49:35;99935.88;;;20.98;52.93
51053;BME280;37093;37.716;-122.060;2023-09-18T06:52:04;99935.16;;;20.92;52.43
51053;BME280;37093;37.716;-122.060;2023-09-18T06:54:32;99932.73;;;21.52;51.40
51053;BME280;37093;37.716;-122.060;2023-09-18T06:57:01;99933.21;;;21.52;51.53
51053;BME280;37093;37.716;-122.060;2023-09-18T06:59:29;99935.18;;;21.43;51.68
51053;BME280;37093;37.716;-122.060;2023-09-18T07:01:12;99936.56;;;20.62;52.53
51053;BME280;37093;37.716;-122.060;2023-09-18T07:03:41;99934.49;;;20.14;50.78
51053;BME280;37093;37.716;-122.060;2023-09-18T07:06:09;99938.45;;;21.72;48.88
51053;BME280;37093;37.716;-122.060;2023-09-18T07:08:37;99940.69;;;21.33;51.88
51053;BME280;37093;37.716;-122.060;2023-09-18T07:11:06;99940.22;;;21.62;50.98
51053;BME280;37093;37.716;-122.060;2023-09-18T07:13:34;99942.65;;;21.37;51.19
51053;BME280;37093;37.716;-122.060;2023-09-18T07:16:02;99943.82;;;21.20;51.82
51053;BME280;37093;37.716;-122.060;2023-09-18T07:18:30;99953.52;;;20.63;53.45
51053;BME280;37093;37.716;-122.060;2023-09-18T07:20:58;99953.88;;;20.26;54.78
51053;BME280;37093;37.716;-122.060;2023-09-18T07:23:27;99950.53;;;20.47;54.65
51053;BME280;37093;37.716;-122.060;2023-09-18T07:25:55;99950.53;;;20.14;55.59
51053;BME280;37093;37.716;-122.060;2023-09-18T07:28:23;99953.16;;;20.82;53.09
51053;BME280;37093;37.716;-122.060;2023-09-18T07:30:52;99949.80;;;20.86;53.67
51053;BME280;37093;37.716;-122.060;2023-09-18T07:33:21;99951.21;;;20.52;53.83
51053;BME280;37093;37.716;-122.060;2023-09-18T07:35:50;99950.61;;;20.89;52.63
51053;BME280;37093;37.716;-122.060;2023-09-18T07:38:19;99950.35;;;20.75;53.44
51053;BME280;37093;37.716;-122.060;2023-09-18T07:40:47;99947.80;;;20.93;52.24
51053;BME280;37093;37.716;-122.060;2023-09-18T07:43:15;99951.33;;;20.23;54.78
51053;BME280;37093;37.716;-122.060;2023-09-18T07:45:43;99953.81;;;20.72;53.34
51053;BME280;37093;37.716;-122.060;2023-09-18T07:48:11;99953.09;;;20.65;53.19
51053;BME280;37093;37.716;-122.060;2023-09-18T07:50:43;99949.41;;;20.59;53.20
51053;BME280;37093;37.716;-122.060;2023-09-18T07:53:12;99948.31;;;21.01;52.07
51053;BME280;37093;37.716;-122.060;2023-09-18T07:55:40;99948.61;;;20.57;53.26
51053;BME280;37093;37.716;-122.060;2023-09-18T07:58:09;99951.84;;;20.95;52.08
51053;BME280;37093;37.716;-122.060;2023-09-18T08:00:38;99950.78;;;20.34;53.86
51053;BME280;37093;37.716;-122.060;2023-09-18T08:03:06;99952.20;;;20.48;53.09
51053;BME280;37093;37.716;-122.060;2023-09-18T08:05:34;99947.77;;;20.34;54.03
51053;BME280;37093;37.716;-122.060;2023-09-18T08:08:03;99950.95;;;19.86;55.79
51053;BME280;37093;37.716;-122.060;2023-09-18T08:10:31;99947.80;;;19.93;55.22
51053;BME280;37093;37.716;-122.060;2023-09-18T08:13:00;99944.35;;;20.19;54.51
51053;BME280;37093;37.716;-122.060;2023-09-18T08:15:28;99948.10;;;20.54;53.36
51053;BME280;37093;37.716;-122.060;2023-09-18T08:17:56;99947.57;;;21.32;52.43
51053;BME280;37093;37.716;-122.060;2023-09-18T08:20:26;99944.10;;;21.06;51.76
51053;BME280;37093;37.716;-122.060;2023-09-18T08:22:55;99946.38;;;20.80;52.20
51053;BME280;37093;37.716;-122.060;2023-09-18T08:25:23;99941.18;;;20.47;54.69
51053;BME280;37093;37.716;-122.060;2023-09-18T08:27:51;99939.46;;;20.75;53.30
51053;BME280;37093;37.716;-122.060;2023-09-18T08:30:20;99938.72;;;20.83;54.13
51053;BME280;37093;37.716;-122.060;2023-09-18T08:32:48;99937.31;;;21.16;53.34
51053;BME280;37093;37.716;-122.060;2023-09-18T08:35:17;99934.33;;;21.29;52.67
51053;BME280;37093;37.716;-122.060;2023-09-18T08:37:45;99932.36;;;21.48;52.35
51053;BME280;37093;37.716;-122.060;2023-09-18T08:40:14;99934.00;;;21.38;52.57
51053;BME280;37093;37.716;-122.060;2023-09-18T08:42:47;99929.60;;;21.33;52.62
51053;BME280;37093;37.716;-122.060;2023-09-18T08:45:25;99926.34;;;21.29;52.36
51053;BME280;37093;37.716;-122.060;2023-09-18T08:47:57;99923.85;;;21.35;52.39
51053;BME280;37093;37.716;-122.060;2023-09-18T08:50:27;99925.00;;;21.41;52.52
51053;BME280;37093;37.716;-122.060;2023-09-18T08:52:57;99925.34;;;20.71;54.11
51053;BME280;37093;37.716;-122.060;2023-09-18T08:55:25;99919.76;;;21.18;53.45
51053;BME280;37093;37.716;-122.060;2023-09-18T08:57:54;99918.33;;;20.86;54.09
51053;BME280;37093;37.716;-122.060;2023-09-18T09:00:23;99918.95;;;20.46;55.06
51053;BME280;37093;37.716;-122.060;2023-09-18T09:02:51;99917.51;;;20.36;55.16
51053;BME280;37093;37.716;-122.060;2023-09-18T09:05:20;99916.40;;;20.88;53.99
51053;BME280;37093;37.716;-122.060;2023-09-18T09:07:50;99919.89;;;20.84;55.58
51053;BME280;37093;37.716;-122.060;2023-09-18T09:10:18;99915.63;;;20.78;54.81
51053;BME280;37093;37.716;-122.060;2023-09-18T09:12:49;99918.60;;;20.47;54.88
51053;BME280;37093;37.716;-122.060;2023-09-18T09:15:18;99912.53;;;21.00;53.60
51053;BME280;37093;37.716;-122.060;2023-09-18T09:17:46;99917.15;;;20.59;55.18
51053;BME280;37093;37.716;-122.060;2023-09-18T09:20:16;99912.90;;;21.29;53.74
51053;BME280;37093;37.716;-122.060;2023-09-18T09:22:44;99909.66;;;21.24;52.96
51053;BME280;37093;37.716;-122.060;2023-09-18T09:25:24;99908.78;;;21.07;54.34
51053;BME280;37093;37.716;-122.060;2023-09-18T09:27:55;99908.11;;;20.75;54.04
51053;BME280;37093;37.716;-122.060;2023-09-18T09:30:25;99906.73;;;20.78;53.39
51053;BME280;37093;37.716;-122.060;2023-09-18T09:32:56;99905.22;;;20.87;52.77
51053;BME280;37093;37.716;-122.060;2023-09-18T09:35:26;99904.63;;;21.11;52.44
51053;BME280;37093;37.716;-122.060;2023-09-18T09:37:57;99899.38;;;21.02;52.30
51053;BME280;37093;37.716;-122.060;2023-09-18T09:40:26;99900.85;;;20.65;53.85
51053;BME280;37093;37.716;-122.060;2023-09-18T09:42:56;99903.16;;;20.39;54.94
51053;BME280;37093;37.716;-122.060;2023-09-18T09:45:25;99903.58;;;20.36;53.54
51053;BME280;37093;37.716;-122.060;2023-09-18T09:47:54;99903.81;;;21.04;52.99
51053;BME280;37093;37.716;-122.060;2023-09-18T09:50:23;99905.09;;;20.48;53.09
51053;BME280;37093;37.716;-122.060;2023-09-18T09:52:53;99904.32;;;20.24;53.93
51053;BME280;37093;37.716;-122.060;2023-09-18T09:55:24;99899.87;;;20.57;52.73
51053;BME280;37093;37.716;-122.060;2023-09-18T09:57:55;99895.04;;;20.94;51.51
51053;BME280;37093;37.716;-122.060;2023-09-18T10:00:26;99894.49;;;20.71;51.69
51053;BME280;37093;37.716;-122.060;2023-09-18T10:02:58;99896.96;;;20.80;52.72
51053;BME280;37093;37.716;-122.060;2023-09-18T10:05:29;99894.36;;;20.76;52.23
51053;BME280;37093;37.716;-122.060;2023-09-18T10:07:59;99896.43;;;20.56;52.54
51053;BME280;37093;37.716;-122.060;2023-09-18T10:10:35;99895.41;;;20.65;51.93
51053;BME280;37093;37.716;-122.060;2023-09-18T10:13:10;99899.17;;;20.84;52.53
51053;BME280;37093;37.716;-122.060;2023-09-18T10:15:41;99895.59;;;20.42;53.45
51053;BME280;37093;37.716;-122.060;2023-09-18T10:18:19;99895.74;;;20.60;51.87
51053;BME280;37093;37.716;-122.060;2023-09-18T10:20:54;99893.73;;;21.05;51.33
51053;BME280;37093;37.716;-122.060;2023-09-18T10:23:37;99890.82;;;20.77;52.00
51053;BME280;37093;37.716;-122.060;2023-09-18T10:26:07;99891.68;;;21.12;52.14
51053;BME280;37093;37.716;-122.060;2023-09-18T10:28:37;99892.27;;;20.67;52.14
51053;BME280;37093;37.716;-122.060;2023-09-18T10:31:05;99892.31;;;20.85;52.51
51053;BME280;37093;37.716;-122.060;2023-09-18T10:33:37;99891.63;;;21.09;51.86
51053;BME280;37093;37.716;-122.060;2023-09-18T10:36:07;99892.85;;;20.83;51.69
51053;BME280;37093;37.716;-122.060;2023-09-18T10:38:36;99889.96;;;20.97;51.96
51053;BME280;37093;37.716;-122.060;2023-09-18T10:41:06;99891.39;;;20.93;51.43
51053;BME280;37093;37.716;-122.060;2023-09-18T10:43:35;99891.32;;;20.76;51.75
51053;BME280;37093;37.716;-122.060;2023-09-18T10:46:03;99890.82;;;20.66;51.51
51053;BME280;37093;37.716;-122.060;2023-09-18T10:48:32;99893.50;;;20.37;52.62
51053;BME280;37093;37.716;-122.060;2023-09-18T10:51:01;99894.75;;;20.86;51.50
51053;BME280;37093;37.716;-122.060;2023-09-18T10:53:30;99894.35;;;20.58;51.85
51053;BME280;37093;37.716;-122.060;2023-09-18T10:55:59;99895.42;;;20.79;51.81
51053;BME280;37093;37.716;-122.060;2023-09-18T10:58:29;99895.95;;;20.51;51.36
51053;BME280;37093;37.716;-122.060;2023-09-18T11:01:00;99896.26;;;20.49;51.60
51053;BME280;37093;37.716;-122.060;2023-09-18T11:03:27;99897.75;;;20.36;51.78
51053;BME280;37093;37.716;-122.060;2023-09-18T11:06:05;99897.79;;;20.39;51.84
51053;BME280;37093;37.716;-122.060;2023-09-18T11:08:34;99896.60;;;20.02;52.25
51053;BME280;37093;37.716;-122.060;2023-09-18T11:11:06;99896.85;;;20.15;52.48
51053;BME280;37093;37.716;-122.060;2023-09-18T11:13:38;99894.62;;;20.38;51.68
51053;BME280;37093;37.716;-122.060;2023-09-18T11:16:35;99893.62;;;20.27;51.81
51053;BME280;37093;37.716;-122.060;2023-09-18T11:19:11;99896.22;;;20.03;52.60
51053;BME280;37093;37.716;-122.060;2023-09-18T11:21:40;99897.71;;;20.34;51.79
51053;BME280;37093;37.716;-122.060;2023-09-18T11:24:15;99897.75;;;20.16;51.54
51053;BME280;37093;37.716;-122.060;2023-09-18T11:26:44;99898.72;;;20.64;51.57
51053;BME280;37093;37.716;-122.060;2023-09-18T11:29:16;99900.43;;;20.22;51.66
51053;BME280;37093;37.716;-122.060;2023-09-18T11:31:46;99901.36;;;20.59;51.83
51053;BME280;37093;37.716;-122.060;2023-09-18T11:34:19;99895.43;;;20.62;50.87
51053;BME280;37093;37.716;-122.060;2023-09-18T11:36:48;99895.01;;;20.85;50.95
51053;BME280;37093;37.716;-122.060;2023-09-18T11:39:35;99895.93;;;20.84;50.61
51053;BME280;37093;37.716;-122.060;2023-09-18T11:42:08;99897.86;;;21.16;50.41
51053;BME280;37093;37.716;-122.060;2023-09-18T11:44:37;99891.87;;;20.77;50.16
51053;BME280;37093;37.716;-122.060;2023-09-18T11:47:08;99892.40;;;20.82;49.89
51053;BME280;37093;37.716;-122.060;2023-09-18T11:49:39;99888.94;;;20.85;50.41
51053;BME280;37093;37.716;-122.060;2023-09-18T11:52:08;99888.99;;;21.19;49.99
51053;BME280;37093;37.716;-122.060;2023-09-18T11:54:40;99889.89;;;21.14;49.91
51053;BME280;37093;37.716;-122.060;2023-09-18T11:57:09;99890.99;;;21.02;49.74
51053;BME280;37093;37.716;-122.060;2023-09-18T11:59:39;99892.30;;;21.31;49.95
51053;BME280;37093;37.716;-122.060;2023-09-18T12:02:08;99894.52;;;21.12;50.11
51053;BME280;37093;37.716;-122.060;2023-09-18T12:04:37;99895.06;;;21.01;49.96
51053;BME280;37093;37.716;-122.060;2023-09-18T12:07:05;99895.31;;;21.10;49.89
51053;BME280;37093;37.716;-122.060;2023-09-18T12:09:34;99897.55;;;21.07;50.03
51053;BME280;37093;37.716;-122.060;2023-09-18T12:12:06;99895.77;;;21.18;49.96
51053;BME280;37093;37.716;-122.060;2023-09-18T12:14:35;99895.51;;;21.15;49.98
51053;BME280;37093;37.716;-122.060;2023-09-18T12:17:03;99896.26;;;21.45;49.68
51053;BME280;37093;37.716;-122.060;2023-09-18T12:19:32;99897.43;;;21.30;50.65
51053;BME280;37093;37.716;-122.060;2023-09-18T12:22:00;99895.75;;;21.16;50.52
51053;BME280;37093;37.716;-122.060;2023-09-18T12:24:29;99895.26;;;20.74;51.15
51053;BME280;37093;37.716;-122.060;2023-09-18T12:26:58;99896.02;;;21.32;50.60
51053;BME280;37093;37.716;-122.060;2023-09-18T12:29:26;99897.69;;;21.52;50.72
51053;BME280;37093;37.716;-122.060;2023-09-18T12:31:55;99900.52;;;20.73;51.55
51053;BME280;37093;37.716;-122.060;2023-09-18T12:34:25;99899.78;;;20.63;52.54
51053;BME280;37093;37.716;-122.060;2023-09-18T12:36:53;99900.17;;;20.87;52.00
51053;BME280;37093;37.716;-122.060;2023-09-18T12:39:22;99900.29;;;20.57;52.32
51053;BME280;37093;37.716;-122.060;2023-09-18T12:41:51;99897.78;;;20.97;52.01